PWSweather.com
Personal Weather Stations
Station Observations
SHAHALMS1
Eftra, Falkenberg, HA

EftraFalkenberg, HA

Lat: 56.85, Lon: 12.65

Elevation: 140

Station Type:

http://hem.passagen.se/risarp101

Latest ConditionsUpdated 4:15:01 AM GMT+1 Wednesday, Mar 27, 2019
Currently Today's Max Today's Min Today's Average
Temperature 42.8°F6.0°C 42.8°F6.0°C 39.6°F4.2°C 42.0°F5.6°C
Dew Point 40.4°F4.7°C 40.4°F4.7°C 33.9°F1.1°C 38.4°F3.6°C
Winds 7.0 mph W11.3 kmh W 7.3 mph -11.7 kmh - - 6.2 mph 10.0 kmh
Wind Gusts 12.9 mph20.8 kmh 16.1 mph25.9 kmh - -
Humidity 91% 91% 80% 87%
Pressure 30.15 in1021.0 mb 30.21 in1023.0 mb 30.15 in1021.0 mb -
Hour Temp Dew Point Humidity Winds Wind Gusts Pressure Precip Precip Rate Daily Precip Total
04:15 AM 42.8°F6.0°C 40.4°F4.7°C 91% 7.0 mph W11.3 kmh W 12.9 mph20.8 kmh 30.15 in1021.0 mb 0.00 in0.0 mm 0.00 in0.0 mm 0.00 in0.0 mm
04:00 AM 42.8°F6.0°C 40.1°F4.5°C 90% 7.1 mph W11.4 kmh W 12.9 mph20.8 kmh 30.15 in1021.0 mb 0.00 in0.0 mm 0.00 in0.0 mm 0.00 in0.0 mm
03:45 AM 42.8°F6.0°C 39.8°F4.3°C 89% 6.2 mph W10.0 kmh W 11.8 mph19.0 kmh 30.15 in1021.0 mb 0.00 in0.0 mm 0.00 in0.0 mm 0.00 in0.0 mm
03:30 AM 42.6°F5.9°C 39.6°F4.2°C 89% 6.1 mph W9.8 kmh W 11.5 mph18.5 kmh 30.15 in1021.0 mb 0.00 in0.0 mm 0.00 in0.0 mm 0.00 in0.0 mm
03:15 AM 42.6°F5.9°C 39.6°F4.2°C 89% 6.6 mph W10.6 kmh W 15.7 mph25.3 kmh 30.15 in1021.0 mb 0.00 in0.0 mm 0.00 in0.0 mm 0.00 in0.0 mm
03:00 AM 42.6°F5.9°C 39.6°F4.2°C 89% 6.4 mph W10.3 kmh W 11.8 mph19.0 kmh 30.15 in1021.0 mb 0.00 in0.0 mm 0.00 in0.0 mm 0.00 in0.0 mm
02:45 AM 42.6°F5.9°C 39.3°F4.1°C 88% 6.2 mph W10.0 kmh W 11.5 mph18.5 kmh 30.15 in1021.0 mb 0.00 in0.0 mm 0.00 in0.0 mm 0.00 in0.0 mm
02:30 AM 42.4°F5.8°C 39.1°F3.9°C 88% 5.6 mph W9.0 kmh W 11.8 mph19.0 kmh 30.15 in1021.0 mb 0.00 in0.0 mm 0.00 in0.0 mm 0.00 in0.0 mm
02:15 AM 42.4°F5.8°C 39.1°F3.9°C 88% 6.0 mph W9.7 kmh W 11.1 mph17.9 kmh 30.15 in1021.0 mb 0.00 in0.0 mm 0.00 in0.0 mm 0.00 in0.0 mm
02:00 AM 42.4°F5.8°C 39.1°F3.9°C 88% 6.1 mph W9.8 kmh W 12.2 mph19.6 kmh 30.18 in1022.0 mb 0.00 in0.0 mm 0.00 in0.0 mm 0.00 in0.0 mm
01:45 AM 42.3°F5.7°C 39.0°F3.9°C 88% 7.3 mph W11.7 kmh W 16.1 mph25.9 kmh 30.18 in1022.0 mb 0.00 in0.0 mm 0.00 in0.0 mm 0.00 in0.0 mm
01:38 AM 42.1°F5.6°C 38.5°F3.6°C 87% 7.2 mph W11.6 kmh W 12.5 mph20.1 kmh 30.18 in1022.0 mb 0.00 in0.0 mm 0.00 in0.0 mm 0.00 in0.0 mm
01:37 AM 42.1°F5.6°C 38.5°F3.6°C 87% 6.4 mph W10.3 kmh W 9.7 mph15.6 kmh 30.18 in1022.0 mb 0.00 in0.0 mm 0.00 in0.0 mm 0.00 in0.0 mm
01:36 AM 42.1°F5.6°C 38.5°F3.6°C 87% 5.9 mph W9.5 kmh W 8.9 mph14.3 kmh 30.18 in1022.0 mb 0.00 in0.0 mm 0.00 in0.0 mm 0.00 in0.0 mm
01:35 AM 42.1°F5.6°C 38.5°F3.6°C 87% 6.4 mph W10.3 kmh W 8.9 mph14.3 kmh 30.18 in1022.0 mb 0.00 in0.0 mm 0.00 in0.0 mm 0.00 in0.0 mm
01:34 AM 42.1°F5.6°C 38.5°F3.6°C 87% 7.3 mph W11.7 kmh W 8.9 mph14.3 kmh 30.18 in1022.0 mb 0.00 in0.0 mm 0.00 in0.0 mm 0.00 in0.0 mm
01:15 AM 42.1°F5.6°C 38.5°F3.6°C 87% 6.4 mph W10.3 kmh W 15.0 mph24.1 kmh 30.18 in1022.0 mb 0.00 in0.0 mm 0.00 in0.0 mm 0.00 in0.0 mm
01:00 AM 41.9°F5.5°C 38.0°F3.3°C 86% 6.7 mph W10.8 kmh W 14.7 mph23.7 kmh 30.21 in1023.0 mb 0.00 in0.0 mm 0.00 in0.0 mm 0.00 in0.0 mm
12:45 AM 41.4°F5.2°C 36.9°F2.7°C 84% 5.0 mph W8.0 kmh W 10.4 mph16.7 kmh 30.18 in1022.0 mb 0.00 in0.0 mm 0.00 in0.0 mm 0.00 in0.0 mm
12:30 AM 40.8°F4.9°C 36.1°F2.3°C 83% 3.8 mph W6.1 kmh W 6.8 mph10.9 kmh 30.18 in1022.0 mb 0.00 in0.0 mm 0.00 in0.0 mm 0.00 in0.0 mm
12:15 AM 40.3°F4.6°C 35.2°F1.8°C 82% 4.6 mph W7.4 kmh W 11.1 mph17.9 kmh 30.15 in1021.0 mb 0.00 in0.0 mm 0.00 in0.0 mm 0.00 in0.0 mm
12:00 AM 39.6°F4.2°C 33.9°F1.1°C 80% 5.5 mph W8.9 kmh W 10.4 mph16.7 kmh 30.15 in1021.0 mb 0.00 in0.0 mm 0.00 in0.0 mm 0.00 in0.0 mm